createdAt,value
2019-04-14T04:00:55.370Z,98.10
2019-04-14T04:01:56.440Z,97.91
2019-04-14T04:02:55.495Z,98.00
2019-04-14T04:03:56.442Z,98.19
2019-04-14T04:04:55.696Z,97.72
2019-04-14T04:05:56.418Z,97.72
2019-04-14T04:06:57.167Z,97.72
2019-04-14T04:07:56.201Z,97.81
2019-04-14T04:08:57.374Z,97.63
2019-04-14T04:09:56.535Z,97.34
2019-04-14T04:10:57.579Z,97.53
2019-04-14T04:11:56.869Z,97.53
2019-04-14T04:12:57.633Z,98.00
2019-04-14T04:13:58.434Z,98.00
2019-04-14T04:14:57.517Z,97.72
2019-04-14T04:15:58.396Z,98.00
2019-04-14T04:16:57.701Z,98.10
2019-04-14T04:17:58.066Z,97.72
2019-04-14T04:19:05.571Z,97.91
2019-04-14T04:19:58.205Z,98.10
2019-04-14T04:20:58.830Z,97.91
2019-04-14T04:21:59.515Z,98.19
2019-04-14T04:22:58.774Z,98.38
2019-04-14T04:23:59.656Z,97.44
2019-04-14T04:24:59.048Z,97.63
2019-04-14T04:25:59.489Z,98.00
2019-04-14T04:27:00.321Z,98.00
2019-04-14T04:27:59.541Z,97.44
2019-04-14T04:29:00.493Z,97.72
2019-04-14T04:29:59.876Z,97.06
2019-04-14T04:31:00.237Z,96.87
2019-04-14T04:32:01.329Z,96.87
2019-04-14T04:33:00.376Z,97.06
2019-04-14T04:34:01.072Z,96.30
2019-04-14T04:35:00.711Z,96.40
2019-04-14T04:36:01.078Z,96.96
2019-04-14T04:37:01.822Z,96.68
2019-04-14T04:38:01.213Z,96.59
2019-04-14T04:39:01.788Z,96.59
2019-04-14T04:40:02.893Z,96.78
2019-04-14T04:41:01.709Z,96.21
2019-04-14T04:42:02.649Z,96.40
2019-04-14T04:43:02.043Z,95.73
2019-04-14T04:44:02.877Z,96.02
2019-04-14T04:45:02.376Z,96.49
2019-04-14T04:46:02.777Z,96.49
2019-04-14T04:47:03.513Z,96.49
2019-04-14T04:48:02.871Z,96.87
2019-04-14T04:49:09.530Z,97.06
2019-04-14T04:50:04.117Z,97.25
2019-04-14T04:51:03.373Z,97.34
2019-04-14T04:52:04.087Z,98.10
2019-04-14T04:53:04.735Z,98.28
2019-04-14T04:54:03.959Z,98.38
2019-04-14T04:55:04.604Z,98.00
2019-04-14T04:56:04.203Z,97.91
2019-04-14T04:57:04.636Z,98.00
2019-04-14T04:58:05.561Z,98.10
2019-04-14T04:59:05.443Z,98.00
2019-04-14T05:00:04.925Z,97.91
2019-04-14T05:01:05.675Z,97.44
2019-04-14T05:02:05.202Z,97.63
2019-04-14T05:03:05.729Z,98.00
2019-04-14T05:04:06.777Z,97.44
2019-04-14T05:05:05.702Z,97.53
2019-04-14T05:06:06.754Z,97.34
2019-04-14T05:07:06.034Z,97.53
2019-04-14T05:08:06.534Z,97.44
2019-04-14T05:09:06.362Z,97.81
2019-04-14T05:10:06.682Z,98.28
2019-04-14T05:11:07.565Z,97.44
2019-04-14T05:12:06.862Z,97.53
2019-04-14T05:13:07.317Z,97.72
2019-04-14T05:14:07.197Z,97.72
2019-04-14T05:15:07.365Z,97.34
2019-04-14T05:16:08.499Z,97.67
2019-04-14T05:17:07.911Z,97.44
2019-04-14T05:18:09.060Z,97.91
2019-04-14T05:19:18.535Z,98.43
2019-04-14T05:20:09.423Z,98.14
2019-04-14T05:21:08.367Z,98.14
2019-04-14T05:22:09.252Z,97.58
2019-04-14T05:23:08.700Z,97.34
2019-04-14T05:24:09.274Z,97.11
2019-04-14T05:25:10.027Z,97.34
2019-04-14T05:26:09.302Z,96.78
2019-04-14T05:27:09.998Z,96.40
2019-04-14T05:28:09.529Z,96.21
2019-04-14T05:29:10.016Z,95.36
2019-04-14T05:30:11.055Z,95.07
2019-04-14T05:31:10.026Z,95.17
2019-04-14T05:32:10.857Z,95.73
2019-04-14T05:33:10.365Z,96.02
2019-04-14T05:34:10.761Z,95.64
2019-04-14T05:35:11.921Z,96.02
2019-04-14T05:36:10.861Z,96.11
2019-04-14T05:37:11.723Z,95.50
2019-04-14T05:38:11.194Z,95.17
2019-04-14T05:39:11.420Z,95.03
2019-04-14T05:40:12.431Z,95.45
2019-04-14T05:41:11.694Z,94.93
2019-04-14T05:42:17.987Z,95.03
2019-04-14T05:43:12.026Z,95.03
2019-04-14T05:44:12.198Z,95.12
2019-04-14T05:45:13.288Z,95.31
2019-04-14T05:46:12.524Z,95.03
2019-04-14T05:47:13.192Z,94.93
2019-04-14T05:48:13.857Z,95.03
2019-04-14T05:49:24.516Z,95.12
2019-04-14T05:50:13.709Z,95.12
2019-04-14T05:51:13.361Z,95.21
2019-04-14T05:52:14.150Z,95.21
2019-04-14T05:53:13.690Z,95.31
2019-04-14T05:54:14.213Z,95.21
2019-04-14T05:55:14.022Z,95.31
2019-04-14T05:56:14.421Z,95.40
2019-04-14T05:57:15.437Z,95.59
2019-04-14T05:58:14.521Z,95.69
2019-04-14T05:59:15.639Z,95.40
2019-04-14T06:00:14.853Z,94.56
2019-04-14T06:01:16.066Z,94.46
2019-04-14T06:02:15.893Z,94.37
2019-04-14T06:03:16.641Z,94.37
2019-04-14T06:04:15.738Z,94.46
2019-04-14T06:05:16.616Z,94.60
2019-04-14T06:06:15.851Z,94.51
2019-04-14T06:07:16.017Z,94.32
2019-04-14T06:08:16.183Z,94.46
2019-04-14T06:09:16.355Z,94.42
2019-04-14T06:10:16.520Z,94.23
2019-04-14T06:11:16.688Z,94.42
2019-04-14T06:12:16.849Z,94.51
2019-04-14T06:13:17.019Z,94.60
2019-04-14T06:14:17.190Z,94.60
2019-04-14T06:15:17.389Z,93.94
2019-04-14T06:16:17.520Z,93.75
2019-04-14T06:17:17.691Z,93.85
2019-04-14T06:18:17.847Z,93.75
2019-04-14T06:19:18.012Z,93.75
2019-04-14T06:20:18.181Z,93.56
2019-04-14T06:21:18.347Z,93.66
2019-04-14T06:22:18.514Z,93.37
2019-04-14T06:23:18.683Z,93.85
2019-04-14T06:24:18.848Z,93.23
2019-04-14T06:25:19.037Z,93.23
2019-04-14T06:26:19.191Z,93.42
2019-04-14T06:27:19.346Z,92.76
2019-04-14T06:28:19.515Z,92.76
2019-04-14T06:29:19.682Z,92.38
2019-04-14T06:30:19.846Z,92.47
2019-04-14T06:31:20.014Z,91.91
2019-04-14T06:32:20.179Z,91.72
2019-04-14T06:33:20.347Z,92.10
2019-04-14T06:34:20.524Z,92.00
2019-04-14T06:35:20.686Z,91.91
2019-04-14T06:36:20.854Z,91.57
2019-04-14T06:37:21.024Z,92.10
2019-04-14T06:38:21.187Z,92.14
2019-04-14T06:39:21.354Z,92.05
2019-04-14T06:40:21.522Z,91.86
2019-04-14T06:41:21.688Z,91.57
2019-04-14T06:42:21.859Z,90.81
2019-04-14T06:43:22.023Z,90.25
2019-04-14T06:44:22.191Z,89.82
2019-04-14T06:45:22.357Z,89.44
2019-04-14T06:46:22.525Z,89.06
2019-04-14T06:47:22.693Z,89.34
2019-04-14T06:48:22.860Z,89.44
2019-04-14T06:49:23.028Z,88.96
2019-04-14T06:50:23.199Z,88.87
2019-04-14T06:51:23.363Z,89.63
2019-04-14T06:52:23.529Z,89.15
2019-04-14T06:53:23.697Z,88.49
2019-04-14T06:54:23.865Z,88.11
2019-04-14T06:55:24.031Z,88.59
2019-04-14T06:56:24.200Z,88.02
2019-04-14T06:57:24.369Z,88.30
2019-04-14T06:58:24.539Z,88.16
2019-04-14T06:59:24.710Z,87.77
2019-04-14T07:00:24.873Z,86.55
2019-04-14T07:01:25.041Z,86.83
2019-04-14T07:02:25.215Z,85.78
2019-04-14T07:03:25.381Z,85.31
2019-04-14T07:04:25.550Z,85.69
2019-04-14T07:05:25.719Z,85.22
2019-04-14T07:06:25.890Z,85.31
2019-04-14T07:07:26.055Z,84.94
2019-04-14T07:08:26.222Z,84.55
2019-04-14T07:09:26.391Z,84.84
2019-04-14T07:10:26.560Z,84.94
2019-04-14T07:11:26.731Z,86.02
2019-04-14T07:12:26.897Z,85.83
2019-04-14T07:13:27.063Z,85.17
2019-04-14T07:14:31.662Z,85.36
2019-04-14T07:15:27.399Z,84.98
2019-04-14T07:16:27.568Z,84.12
2019-04-14T07:17:27.739Z,83.46
2019-04-14T07:18:27.911Z,82.74
2019-04-14T07:19:28.074Z,82.55
2019-04-14T07:20:28.243Z,83.40
2019-04-14T07:21:28.412Z,82.84
2019-04-14T07:22:28.645Z,82.17
2019-04-14T07:23:28.750Z,81.04
2019-04-14T07:24:28.921Z,79.90
2019-04-14T07:25:29.092Z,80.18
2019-04-14T07:26:29.260Z,80.22
2019-04-14T07:27:29.437Z,80.03
2019-04-14T07:28:29.596Z,79.55
2019-04-14T07:29:29.764Z,79.55
2019-04-14T07:30:29.935Z,79.08
2019-04-14T07:31:30.103Z,78.74
2019-04-14T07:32:30.289Z,78.93
2019-04-14T07:33:30.440Z,79.79
2019-04-14T07:34:30.611Z,78.55
2019-04-14T07:35:30.779Z,76.31
2019-04-14T07:36:30.948Z,74.88
2019-04-14T07:37:31.118Z,74.03
2019-04-14T07:38:31.304Z,72.79
2019-04-14T07:39:31.456Z,72.64
2019-04-14T07:40:31.623Z,71.12
2019-04-14T07:41:31.792Z,71.02
2019-04-14T07:42:31.964Z,71.25
2019-04-14T07:43:32.126Z,69.82
2019-04-14T07:44:32.295Z,69.15
2019-04-14T07:45:32.502Z,69.48
2019-04-14T07:46:32.634Z,69.19
2019-04-14T07:47:32.800Z,67.51
2019-04-14T07:48:32.968Z,67.03
2019-04-14T07:49:33.139Z,66.40
2019-04-14T07:50:33.312Z,64.02
2019-04-14T07:51:33.480Z,62.49
2019-04-14T07:52:33.649Z,61.48
2019-04-14T07:53:33.819Z,60.72
2019-04-14T07:54:33.989Z,60.30
2019-04-14T07:55:34.159Z,60.05
2019-04-14T07:56:34.330Z,59.38
2019-04-14T07:57:34.501Z,59.99
2019-04-14T07:58:34.669Z,59.09
2019-04-14T07:59:34.838Z,58.94
2019-04-14T08:00:35.018Z,59.31
2019-04-14T08:01:35.177Z,59.38
2019-04-14T08:02:35.348Z,59.95
2019-04-14T08:03:35.518Z,60.24
2019-04-14T08:04:35.688Z,60.05
2019-04-14T08:05:35.867Z,59.51
2019-04-14T08:06:38.306Z,58.94
2019-04-14T08:07:36.199Z,57.79
2019-04-14T08:08:36.430Z,57.24
2019-04-14T08:09:36.545Z,57.06
2019-04-14T08:10:36.714Z,56.55
2019-04-14T08:11:36.890Z,57.22
2019-04-14T08:12:37.054Z,57.89
2019-04-14T08:13:37.221Z,57.57
2019-04-14T08:14:37.402Z,59.35
2019-04-14T08:15:37.561Z,60.02
2019-04-14T08:16:37.729Z,60.11
2019-04-14T08:17:37.899Z,60.37
2019-04-14T08:18:38.069Z,61.13
2019-04-14T08:19:38.237Z,61.45
2019-04-14T08:20:38.410Z,61.13
2019-04-14T08:21:38.584Z,60.37
2019-04-14T08:22:38.756Z,61.19
2019-04-14T08:23:38.926Z,62.24
2019-04-14T08:24:39.101Z,62.62
2019-04-14T08:25:39.268Z,62.65
2019-04-14T08:26:39.440Z,62.46
2019-04-14T08:27:39.610Z,63.13
2019-04-14T08:28:39.781Z,63.26
2019-04-14T08:29:39.952Z,61.64
2019-04-14T08:30:40.120Z,60.72
2019-04-14T08:31:40.293Z,59.22
2019-04-14T08:32:40.470Z,58.36
2019-04-14T08:33:40.635Z,57.63
2019-04-14T08:34:40.807Z,57.06
2019-04-14T08:35:40.977Z,56.41
2019-04-14T08:36:41.149Z,54.57
2019-04-14T08:37:41.320Z,54.86
2019-04-14T08:38:41.491Z,54.67
2019-04-14T08:39:41.663Z,55.72
2019-04-14T08:40:41.834Z,56.23
2019-04-14T08:41:42.002Z,54.99
2019-04-14T08:42:42.173Z,54.70
2019-04-14T08:43:42.344Z,53.58
2019-04-14T08:44:42.522Z,53.13
2019-04-14T08:45:42.687Z,52.08
2019-04-14T08:46:42.861Z,51.24
2019-04-14T08:47:43.029Z,51.24
2019-04-14T08:48:43.203Z,50.70
2019-04-14T08:49:43.372Z,49.16
2019-04-14T08:50:43.545Z,49.86
2019-04-14T08:51:43.717Z,49.19
2019-04-14T08:52:43.890Z,48.30
2019-04-14T08:53:44.062Z,48.09
2019-04-14T08:54:44.234Z,49.80
2019-04-14T08:55:44.408Z,50.38
2019-04-14T08:56:44.580Z,49.71
2019-04-14T08:57:44.753Z,49.64
2019-04-14T08:58:44.924Z,48.23
2019-04-14T08:59:45.097Z,48.30
2019-04-14T09:00:45.272Z,48.49
2019-04-14T09:01:45.442Z,48.52
2019-04-14T09:02:45.616Z,47.75
2019-04-14T09:03:45.790Z,46.89
2019-04-14T09:04:45.959Z,48.52
2019-04-14T09:05:46.132Z,48.52
2019-04-14T09:06:46.305Z,48.47
2019-04-14T09:07:46.476Z,49.40
2019-04-14T09:08:46.658Z,50.24
2019-04-14T09:09:46.821Z,51.57
2019-04-14T09:10:46.994Z,52.98
2019-04-14T09:11:47.166Z,52.79
2019-04-14T09:12:47.342Z,52.86
2019-04-14T09:13:47.509Z,53.91
2019-04-14T09:14:56.916Z,54.26
2019-04-14T09:15:47.855Z,56.24
2019-04-14T09:16:48.031Z,58.52
2019-04-14T09:17:48.206Z,58.33
2019-04-14T09:18:48.372Z,58.04
2019-04-14T09:19:48.546Z,58.33
2019-04-14T09:20:52.560Z,57.31
2019-04-14T09:21:48.889Z,56.62
2019-04-14T09:22:49.062Z,57.95
2019-04-14T09:23:49.234Z,58.43
2019-04-14T09:24:49.404Z,58.65
2019-04-14T09:25:49.583Z,57.70
2019-04-14T09:26:49.756Z,56.93
2019-04-14T09:27:49.925Z,57.41
2019-04-14T09:28:50.098Z,57.41
2019-04-14T09:29:52.198Z,57.22
2019-04-14T09:30:50.444Z,57.70
2019-04-14T09:31:50.617Z,57.41
2019-04-14T09:32:50.789Z,57.31
2019-04-14T09:33:50.963Z,56.65
2019-04-14T09:34:51.135Z,56.26
2019-04-14T09:35:51.306Z,55.98
2019-04-14T09:36:51.477Z,56.17
2019-04-14T09:37:51.648Z,55.50
2019-04-14T09:38:51.821Z,56.43
2019-04-14T09:39:51.991Z,57.28
2019-04-14T09:40:52.163Z,57.28
2019-04-14T09:41:52.335Z,57.09
2019-04-14T09:42:52.509Z,57.57
2019-04-14T09:43:52.679Z,56.36
2019-04-14T09:44:52.851Z,56.48
2019-04-14T09:45:53.024Z,55.94
2019-04-14T09:46:53.196Z,54.41
2019-04-14T09:47:53.369Z,53.55
2019-04-14T09:48:53.550Z,53.17
2019-04-14T09:49:53.714Z,53.24
2019-04-14T09:51:04.113Z,54.41
2019-04-14T09:51:54.060Z,54.34
2019-04-14T09:52:54.235Z,53.39
2019-04-14T09:53:54.404Z,54.25
2019-04-14T09:54:54.578Z,53.86
2019-04-14T09:55:54.785Z,54.60
2019-04-14T09:56:54.921Z,53.84
2019-04-14T09:57:55.093Z,53.24
2019-04-14T09:58:55.267Z,53.36
2019-04-14T09:59:55.441Z,53.27
2019-04-14T10:00:55.612Z,53.65
2019-04-14T10:01:55.788Z,53.65
2019-04-14T10:02:55.958Z,54.32
2019-04-14T10:03:56.128Z,53.08
2019-04-14T10:04:56.300Z,53.17
2019-04-14T10:05:56.471Z,53.27
2019-04-14T10:06:56.646Z,54.50
2019-04-14T10:07:56.841Z,54.96
2019-04-14T10:08:56.989Z,55.18
2019-04-14T10:09:57.164Z,53.96
2019-04-14T10:10:57.336Z,52.84
2019-04-14T10:11:57.518Z,52.46
2019-04-14T10:12:57.685Z,51.89
2019-04-14T10:13:57.855Z,51.41
2019-04-14T10:14:58.029Z,51.70
2019-04-14T10:15:58.201Z,51.38
2019-04-14T10:17:01.203Z,52.24
2019-04-14T10:17:58.547Z,53.10
2019-04-14T10:18:58.719Z,53.96
2019-04-14T10:19:58.892Z,53.03
2019-04-14T10:20:59.066Z,53.20
2019-04-14T10:21:59.238Z,53.36
2019-04-14T10:22:59.409Z,53.36
2019-04-14T10:23:59.582Z,54.60
2019-04-14T10:24:59.755Z,54.29
2019-04-14T10:25:59.927Z,56.01
2019-04-14T10:27:00.104Z,56.20
2019-04-14T10:28:00.273Z,56.58
2019-04-14T10:29:00.447Z,56.41
2019-04-14T10:30:00.628Z,56.38
2019-04-14T10:31:00.796Z,55.50
2019-04-14T10:32:00.970Z,56.07
2019-04-14T10:33:01.141Z,57.22
2019-04-14T10:34:01.319Z,57.41
2019-04-14T10:35:01.490Z,58.07
2019-04-14T10:36:01.664Z,58.36
2019-04-14T10:37:01.836Z,58.46
2019-04-14T10:38:02.009Z,59.12
2019-04-14T10:39:02.184Z,58.72
2019-04-14T10:40:02.357Z,59.00
2019-04-14T10:41:02.530Z,60.05
2019-04-14T10:42:02.700Z,59.86
2019-04-14T10:43:02.874Z,59.19
2019-04-14T10:44:03.044Z,59.38
2019-04-14T10:45:03.217Z,59.76
2019-04-14T10:46:03.393Z,59.38
2019-04-14T10:47:03.559Z,59.54
2019-04-14T10:48:03.732Z,59.74
2019-04-14T10:49:03.912Z,60.37
2019-04-14T10:50:04.081Z,60.94
2019-04-14T10:51:04.261Z,61.51
2019-04-14T10:52:04.447Z,62.46
2019-04-14T10:53:04.619Z,62.37
2019-04-14T10:54:04.791Z,62.08
2019-04-14T10:55:04.963Z,62.75
2019-04-14T10:56:05.134Z,62.91
2019-04-14T10:57:05.312Z,63.48
2019-04-14T10:58:05.480Z,64.15
2019-04-14T10:59:05.656Z,64.08
2019-04-14T11:00:05.819Z,63.32
2019-04-14T11:01:05.988Z,63.70
2019-04-14T11:02:06.162Z,62.94
2019-04-14T11:03:06.335Z,63.23
2019-04-14T11:04:08.027Z,62.94
2019-04-14T11:05:06.678Z,62.49
2019-04-14T11:06:06.850Z,62.49
2019-04-14T11:07:07.021Z,61.25
2019-04-14T11:08:07.192Z,60.30
2019-04-14T11:09:07.362Z,60.43
2019-04-14T11:10:07.534Z,60.72
2019-04-14T11:11:07.704Z,60.33
2019-04-14T11:12:07.874Z,60.24
2019-04-14T11:13:08.050Z,60.52
2019-04-14T11:14:08.223Z,60.52
2019-04-14T11:15:08.392Z,60.14
2019-04-14T11:16:08.564Z,60.30
2019-04-14T11:17:08.736Z,60.59
2019-04-14T11:18:08.906Z,60.30
2019-04-14T11:19:09.075Z,60.88
2019-04-14T11:20:09.253Z,61.61
2019-04-14T11:21:09.417Z,62.65
2019-04-14T11:22:09.586Z,63.13
2019-04-14T11:23:09.758Z,64.28
2019-04-14T11:24:09.933Z,64.47
2019-04-14T11:25:10.104Z,64.47
2019-04-14T11:26:10.276Z,63.86
2019-04-14T11:27:10.450Z,64.05
2019-04-14T11:28:10.618Z,65.00
2019-04-14T11:29:10.788Z,64.90
2019-04-14T11:30:10.959Z,65.38
2019-04-14T11:31:11.133Z,65.86
2019-04-14T11:32:11.303Z,66.53
2019-04-14T11:33:11.474Z,66.05
2019-04-14T11:34:11.644Z,66.62
2019-04-14T11:35:11.894Z,66.62
2019-04-14T11:36:12.001Z,66.14
2019-04-14T11:37:12.167Z,66.72
2019-04-14T11:38:12.331Z,66.62
2019-04-14T11:39:12.514Z,67.10
2019-04-14T11:40:12.671Z,66.33
2019-04-14T11:41:12.849Z,66.24
2019-04-14T11:42:13.011Z,67.67
2019-04-14T11:43:13.182Z,66.91
2019-04-14T11:44:13.357Z,67.57
2019-04-14T11:45:13.531Z,67.47
2019-04-14T11:46:13.694Z,67.67
2019-04-14T11:47:16.117Z,67.00
2019-04-14T11:48:14.038Z,66.62
2019-04-14T11:49:14.208Z,67.29
2019-04-14T11:50:14.394Z,67.19
2019-04-14T11:51:14.546Z,67.82
2019-04-14T11:52:14.716Z,68.30
2019-04-14T11:53:14.886Z,67.95
2019-04-14T11:54:15.060Z,67.67
2019-04-14T11:55:15.228Z,67.19
2019-04-14T11:56:15.412Z,67.86
2019-04-14T11:57:15.571Z,69.00
2019-04-14T11:58:15.743Z,68.43
2019-04-14T11:59:15.912Z,69.00
2019-04-14T12:00:16.140Z,69.29
2019-04-14T12:01:16.253Z,70.14
2019-04-14T12:02:16.430Z,69.85
2019-04-14T12:03:16.591Z,68.90
2019-04-14T12:04:16.767Z,68.62
2019-04-14T12:05:16.950Z,68.77
2019-04-14T12:06:17.103Z,68.90
2019-04-14T12:07:17.275Z,68.87
2019-04-14T12:08:17.444Z,69.15
2019-04-14T12:09:17.614Z,69.15
2019-04-14T12:10:17.784Z,69.15
2019-04-14T12:11:17.957Z,68.59
2019-04-14T12:12:18.145Z,69.44
2019-04-14T12:13:18.316Z,69.82
2019-04-14T12:14:18.486Z,70.39
2019-04-14T12:15:18.697Z,69.82
2019-04-14T12:16:18.828Z,69.63
2019-04-14T12:17:19.000Z,68.96
2019-04-14T12:18:19.170Z,69.54
2019-04-14T12:19:19.340Z,70.97
2019-04-14T12:20:19.514Z,70.87
2019-04-14T12:21:19.688Z,70.77
2019-04-14T12:22:19.855Z,70.77
2019-04-14T12:23:20.025Z,71.15
2019-04-14T12:24:20.194Z,71.44
2019-04-14T12:25:20.365Z,70.74
2019-04-14T12:26:20.534Z,71.02
2019-04-14T12:27:20.713Z,71.41
2019-04-14T12:28:21.914Z,71.59
2019-04-14T12:29:21.445Z,71.12
2019-04-14T12:30:22.304Z,71.02
2019-04-14T12:31:21.870Z,71.12
2019-04-14T12:32:21.565Z,71.88
2019-04-14T12:33:21.735Z,70.83
2019-04-14T12:34:21.906Z,71.15
2019-04-14T12:35:22.075Z,71.97
2019-04-14T12:36:22.248Z,71.69
2019-04-14T12:37:22.407Z,71.59
2019-04-14T12:38:22.587Z,72.26
2019-04-14T12:39:22.782Z,72.26
2019-04-14T12:40:22.926Z,72.55
2019-04-14T12:41:24.166Z,72.92
2019-04-14T12:42:23.268Z,72.92
2019-04-14T12:43:23.440Z,73.49
2019-04-14T12:44:23.606Z,73.21
2019-04-14T12:45:23.781Z,73.11
2019-04-14T12:46:23.953Z,72.92
2019-04-14T12:47:24.122Z,72.64
2019-04-14T12:48:24.295Z,72.35
2019-04-14T12:49:24.463Z,71.78
2019-04-14T12:50:24.633Z,72.07
2019-04-14T12:51:24.804Z,72.16
2019-04-14T12:52:24.975Z,72.92
2019-04-14T12:53:25.145Z,73.21
2019-04-14T12:54:25.315Z,73.02
2019-04-14T12:55:25.488Z,73.40
2019-04-14T12:56:25.657Z,72.64
2019-04-14T12:57:25.825Z,72.35
2019-04-14T12:58:25.996Z,72.35
2019-04-14T12:59:26.172Z,73.02
2019-04-14T13:00:26.338Z,72.74
2019-04-14T13:01:26.511Z,72.74
2019-04-14T13:02:26.678Z,72.83
2019-04-14T13:03:26.847Z,71.97
2019-04-14T13:04:27.019Z,72.16
2019-04-14T13:05:27.192Z,71.97
2019-04-14T13:06:27.361Z,71.88
2019-04-14T13:07:27.526Z,72.45
2019-04-14T13:08:27.705Z,72.45
2019-04-14T13:09:27.876Z,73.21
2019-04-14T13:10:28.045Z,73.88
2019-04-14T13:11:28.214Z,74.16
2019-04-14T13:12:28.385Z,73.21
2019-04-14T13:13:28.553Z,73.21
2019-04-14T13:14:28.724Z,72.92
2019-04-14T13:15:28.894Z,73.49
2019-04-14T13:16:29.066Z,73.21
2019-04-14T13:17:29.235Z,73.40
2019-04-14T13:18:29.405Z,73.30
2019-04-14T13:19:29.574Z,73.21
2019-04-14T13:20:29.745Z,73.69
2019-04-14T13:21:29.927Z,73.69
2019-04-14T13:22:34.264Z,73.02
2019-04-14T13:23:30.259Z,72.77
2019-04-14T13:24:30.429Z,73.25
2019-04-14T13:25:30.600Z,72.77
2019-04-14T13:26:30.768Z,72.58
2019-04-14T13:27:30.939Z,72.30
2019-04-14T13:28:31.112Z,71.25
2019-04-14T13:29:31.275Z,70.68
2019-04-14T13:30:31.447Z,71.06
2019-04-14T13:31:31.617Z,70.58
2019-04-14T13:32:36.230Z,71.00
2019-04-14T13:33:31.990Z,71.19
2019-04-14T13:34:32.125Z,71.28
2019-04-14T13:35:32.295Z,70.52
2019-04-14T13:36:32.465Z,69.57
2019-04-14T13:37:32.637Z,69.38
2019-04-14T13:38:32.808Z,69.10
2019-04-14T13:39:32.978Z,69.10
2019-04-14T13:40:33.149Z,68.90
2019-04-14T13:41:33.319Z,69.10
2019-04-14T13:42:33.492Z,67.76
2019-04-14T13:43:33.659Z,67.29
2019-04-14T13:44:33.831Z,67.86
2019-04-14T13:45:33.998Z,67.80
2019-04-14T13:46:34.181Z,67.89
2019-04-14T13:47:34.347Z,68.65
2019-04-14T13:48:34.516Z,67.99
2019-04-14T13:49:34.683Z,67.57
2019-04-14T13:50:34.854Z,67.47
2019-04-14T13:51:35.015Z,67.76
2019-04-14T13:52:46.156Z,68.90
2019-04-14T13:53:35.378Z,69.67
2019-04-14T13:54:35.560Z,70.72
2019-04-14T13:55:35.725Z,70.52
2019-04-14T13:56:35.898Z,70.05
2019-04-14T13:57:36.070Z,70.52
2019-04-14T13:58:40.367Z,70.05
2019-04-14T13:59:36.413Z,70.01
2019-04-14T14:00:36.583Z,70.43
2019-04-14T14:01:36.756Z,71.09
2019-04-14T14:02:36.925Z,71.19
2019-04-14T14:03:37.096Z,71.00
2019-04-14T14:04:37.267Z,70.43
2019-04-14T14:05:37.438Z,71.28
2019-04-14T14:06:37.607Z,71.09
2019-04-14T14:07:37.779Z,70.24
2019-04-14T14:08:37.948Z,70.81
2019-04-14T14:09:38.118Z,70.43
2019-04-14T14:10:38.278Z,70.05
2019-04-14T14:11:38.453Z,69.19
2019-04-14T14:12:38.623Z,69.29
2019-04-14T14:13:38.793Z,69.38
2019-04-14T14:14:38.963Z,69.48
2019-04-14T14:15:39.133Z,70.05
2019-04-14T14:16:39.305Z,70.24
2019-04-14T14:17:39.935Z,71.09
2019-04-14T14:18:39.646Z,71.00
2019-04-14T14:19:39.817Z,71.09
2019-04-14T14:20:39.987Z,70.81
2019-04-14T14:21:40.160Z,70.72
2019-04-14T14:22:40.329Z,71.57
2019-04-14T14:23:40.499Z,71.00
2019-04-14T14:24:40.678Z,71.09
2019-04-14T14:25:40.842Z,71.28
2019-04-14T14:26:41.014Z,71.38
2019-04-14T14:27:41.182Z,71.28
2019-04-14T14:28:41.353Z,71.86
2019-04-14T14:29:41.524Z,71.57
2019-04-14T14:30:41.697Z,70.81
2019-04-14T14:31:41.867Z,70.94
2019-04-14T14:32:42.037Z,70.65
2019-04-14T14:33:44.022Z,71.70
2019-04-14T14:34:42.377Z,71.32
2019-04-14T14:35:42.549Z,71.32
2019-04-14T14:36:42.719Z,71.32
2019-04-14T14:37:42.890Z,70.94
2019-04-14T14:38:43.064Z,71.42
2019-04-14T14:39:43.239Z,70.18
2019-04-14T14:40:43.476Z,70.94
2019-04-14T14:41:43.584Z,69.60
2019-04-14T14:42:43.748Z,69.23
2019-04-14T14:43:43.920Z,69.60
2019-04-14T14:44:44.091Z,69.76
2019-04-14T14:45:44.262Z,69.85
2019-04-14T14:46:44.433Z,70.37
2019-04-14T14:47:44.605Z,70.27
2019-04-14T14:48:44.775Z,69.99
2019-04-14T14:49:44.945Z,70.94
2019-04-14T14:50:45.118Z,71.00
2019-04-14T14:51:45.287Z,71.28
2019-04-14T14:52:45.455Z,71.32
2019-04-14T14:53:45.626Z,70.18
2019-04-14T14:54:45.798Z,71.32
2019-04-14T14:55:45.966Z,70.75
2019-04-14T14:56:46.137Z,70.94
2019-04-14T14:57:46.308Z,71.22
2019-04-14T14:58:46.479Z,71.57
2019-04-14T14:59:46.653Z,72.42
2019-04-14T15:00:46.820Z,72.81
2019-04-14T15:01:46.989Z,73.34
2019-04-14T15:02:47.165Z,75.24
2019-04-14T15:03:47.340Z,76.57
2019-04-14T15:04:47.507Z,77.15
2019-04-14T15:05:47.676Z,77.53
2019-04-14T15:06:47.847Z,78.00
2019-04-14T15:07:48.015Z,78.57
2019-04-14T15:08:48.187Z,76.96
2019-04-14T15:09:48.354Z,78.00
2019-04-14T15:10:48.523Z,78.96
2019-04-14T15:11:48.693Z,79.24
2019-04-14T15:12:48.868Z,79.24
2019-04-14T15:13:49.033Z,78.67
2019-04-14T15:14:49.204Z,78.48
2019-04-14T15:15:49.372Z,77.91
2019-04-14T15:16:49.541Z,79.43
2019-04-14T15:17:49.712Z,79.62
2019-04-14T15:18:49.883Z,79.52
2019-04-14T15:19:50.057Z,79.43
2019-04-14T15:20:50.227Z,79.72
2019-04-14T15:21:50.400Z,80.00
2019-04-14T15:22:52.371Z,80.57
2019-04-14T15:23:50.738Z,79.81
2019-04-14T15:24:50.906Z,80.19
2019-04-14T15:25:51.075Z,80.19
2019-04-14T15:26:51.248Z,80.19
2019-04-14T15:27:51.417Z,78.86
2019-04-14T15:28:51.592Z,78.96
2019-04-14T15:29:51.759Z,79.58
2019-04-14T15:30:51.928Z,80.15
2019-04-14T15:31:52.097Z,79.68
2019-04-14T15:32:52.267Z,79.39
2019-04-14T15:33:52.439Z,80.72
2019-04-14T15:34:52.609Z,81.48
2019-04-14T15:35:52.778Z,81.48
2019-04-14T15:36:52.952Z,80.44
2019-04-14T15:37:53.121Z,79.86
2019-04-14T15:38:53.288Z,80.15
2019-04-14T15:39:53.459Z,81.16
2019-04-14T15:40:53.630Z,81.48
2019-04-14T15:41:53.798Z,80.49
2019-04-14T15:42:53.969Z,80.21
2019-04-14T15:43:54.135Z,80.11
2019-04-14T15:44:54.305Z,80.11
2019-04-14T15:45:54.476Z,80.11
2019-04-14T15:46:54.645Z,80.58
2019-04-14T15:47:54.817Z,81.16
2019-04-14T15:48:54.984Z,81.25
2019-04-14T15:49:55.154Z,81.29
2019-04-14T15:50:55.324Z,80.02
2019-04-14T15:51:55.493Z,80.11
2019-04-14T15:52:55.663Z,80.96
2019-04-14T15:53:55.836Z,80.96
2019-04-14T15:54:56.003Z,80.34
2019-04-14T15:55:56.173Z,79.83
2019-04-14T15:56:56.341Z,79.54
2019-04-14T15:57:56.521Z,79.73
2019-04-14T15:58:56.681Z,80.30
2019-04-14T15:59:56.853Z,80.40
2019-04-14T16:00:57.024Z,80.87
2019-04-14T16:01:57.194Z,81.63
2019-04-14T16:02:57.370Z,81.16
2019-04-14T16:03:57.534Z,81.44
2019-04-14T16:04:57.707Z,81.63
2019-04-14T16:05:57.878Z,81.16
2019-04-14T16:06:58.056Z,80.96
2019-04-14T16:07:58.222Z,81.25
2019-04-14T16:08:58.392Z,81.44
2019-04-14T16:09:58.563Z,81.73
2019-04-14T16:10:58.733Z,82.10
2019-04-14T16:11:58.907Z,82.77
2019-04-14T16:12:59.074Z,83.25
2019-04-14T16:13:59.244Z,83.06
2019-04-14T16:14:59.412Z,82.01
2019-04-14T16:15:59.583Z,82.39
2019-04-14T16:16:59.753Z,82.77
2019-04-14T16:17:59.923Z,81.92
2019-04-14T16:19:00.094Z,82.68
2019-04-14T16:20:00.265Z,82.96
2019-04-14T16:21:00.434Z,81.92
2019-04-14T16:22:00.606Z,82.29
2019-04-14T16:23:00.781Z,82.92
2019-04-14T16:24:00.943Z,82.16
2019-04-14T16:25:01.116Z,82.16
2019-04-14T16:26:01.287Z,81.87
2019-04-14T16:27:01.501Z,82.07
2019-04-14T16:28:01.670Z,83.30
2019-04-14T16:29:02.682Z,83.11
2019-04-14T16:30:02.014Z,83.01
2019-04-14T16:31:02.178Z,83.87
2019-04-14T16:32:02.347Z,84.06
2019-04-14T16:33:02.515Z,83.87
2019-04-14T16:34:02.693Z,83.87
2019-04-14T16:35:02.855Z,84.53
2019-04-14T16:36:03.042Z,84.25
2019-04-14T16:37:03.194Z,85.01
2019-04-14T16:38:03.365Z,84.72
2019-04-14T16:39:03.533Z,85.39
2019-04-14T16:40:03.701Z,85.86
2019-04-14T16:41:03.871Z,85.68
2019-04-14T16:42:04.040Z,85.86
2019-04-14T16:43:04.208Z,85.86
2019-04-14T16:44:04.378Z,85.86
2019-04-14T16:45:04.544Z,85.96
2019-04-14T16:46:04.714Z,85.86
2019-04-14T16:47:04.890Z,86.05
2019-04-14T16:48:05.054Z,86.15
2019-04-14T16:49:05.226Z,85.77
2019-04-14T16:50:05.396Z,86.34
2019-04-14T16:51:05.565Z,86.15
2019-04-14T16:52:05.735Z,85.96
2019-04-14T16:53:05.906Z,86.43
2019-04-14T16:54:06.078Z,87.01
2019-04-14T16:55:06.246Z,86.15